Time;durP1;ratioP1;P1;durP2;ratioP2;P2;SDS_P1;SDS_P2;PMS_P1;PMS_P2;Temp;Humidity;BMP_temperature;BMP_pressure;BME280_temperature;BME280_humidity;BME280_pressure;Samples;Min_cycle;Max_cycle;Signal;HPM_P1;HPM_P2
2022/04/24 00:02:13;;;;;;;;;;;;;;;12.77;51.60;98859.34;5087071;28;20033;-79
2022/04/24 00:04:40;;;;;;;8.13;5.20;;;;;;;12.70;52.87;98863.84;5053648;28;20027;-80
2022/04/24 00:07:07;;;;;;;;;;;;;;;12.76;52.92;98861.97;5070499;28;20037;-80
2022/04/24 00:09:33;;;;;;;7.80;6.00;;;;;;;12.70;53.90;98863.84;5053759;28;20015;-81
2022/04/24 00:11:59;;;;;;;;;;;;;;;12.74;53.91;98867.25;5054640;28;20032;-80
2022/04/24 00:14:24;;;;;;;7.80;5.43;;;;;;;12.69;53.95;98856.06;5052047;28;19920;-80
2022/04/24 00:16:50;;;;;;;;;;;;;;;12.71;53.78;98854.28;5054195;28;20040;-80
2022/04/24 00:19:18;;;;;;;9.30;6.00;;;;;;;12.63;53.93;98849.28;5053358;28;20441;-80
2022/04/24 00:21:45;;;;;;;7.18;5.85;;;;;;;12.61;54.32;98855.44;5053634;28;20032;-81
2022/04/24 00:24:11;;;;;;;7.25;6.20;;;;;;;12.61;54.67;98842.41;5053174;28;20152;-80
2022/04/24 00:26:37;;;;;;;;;;;;;;;12.67;54.57;98837.91;5053996;28;20048;-78
2022/04/24 00:29:03;;;;;;;10.18;5.78;;;;;;;12.62;54.32;98844.97;5052303;28;19916;-79
2022/04/24 00:31:28;;;;;;;;;;;;;;;12.65;54.48;98839.69;5039811;28;20420;-80
2022/04/24 00:33:54;;;;;;;8.45;6.97;;;;;;;12.55;54.38;98827.78;5052951;28;19975;-79
2022/04/24 00:36:19;;;;;;;;;;;;;;;12.64;53.90;98839.72;5068632;28;20040;-79
2022/04/24 00:38:45;;;;;;;8.18;6.55;;;;;;;12.55;53.40;98843.41;5053696;28;19951;-80
2022/04/24 00:41:11;;;;;;;;;;;;;;;12.61;53.71;98845.88;5053666;28;20035;-80
2022/04/24 00:43:36;;;;;;;9.10;6.30;;;;;;;12.57;53.79;98848.59;5053940;28;19916;-80
2022/04/24 00:46:32;;;;;;;8.52;6.88;;;;;;;12.47;54.05;98845.38;5065998;28;20087;-80
2022/04/24 00:48:58;;;;;;;8.63;6.93;;;;;;;12.45;54.08;98855.78;5052832;28;20036;-80
2022/04/24 00:51:24;;;;;;;;;;;;;;;12.44;54.29;98850.63;5051540;28;20033;-79
2022/04/24 00:53:49;;;;;;;11.07;7.00;;;;;;;12.40;54.06;98849.00;5051783;28;20313;-80
2022/04/24 00:56:15;;;;;;;;;;;;;;;12.51;54.14;98846.13;5068720;28;20039;-80
2022/04/24 00:58:41;;;;;;;8.75;6.65;;;;;;;12.48;53.71;98841.88;5038815;28;19916;-80
2022/04/24 01:01:06;;;;;;;;;;;;;;;12.61;53.29;98843.28;5041777;28;20046;-78
2022/04/24 01:03:32;;;;;;;8.82;6.80;;;;;;;12.58;53.13;98837.28;5036685;28;19965;-81
2022/04/24 01:05:57;;;;;;;;;;;;;;;12.63;53.44;98836.25;5050276;28;20040;-79
2022/04/24 01:08:23;;;;;;;8.45;6.95;;;;;;;12.55;53.34;98830.41;5023436;28;19921;-80
2022/04/24 01:10:48;;;;;;;;;;;;;;;12.60;52.91;98825.06;5053384;28;20064;-78
2022/04/24 01:13:14;;;;;;;9.27;7.15;;;;;;;12.51;53.07;98828.78;5046824;28;20019;-79
2022/04/24 01:15:39;;;;;;;;;;;;;;;12.52;53.12;98832.25;5044586;28;20033;-79
2022/04/24 01:18:05;;;;;;;9.10;6.88;;;;;;;12.37;53.74;98825.66;5041270;28;19917;-80
2022/04/24 01:20:34;;;;;;;;;;;;;;;12.48;53.79;98823.66;5015700;28;20045;-79
2022/04/24 01:23:00;;;;;;;9.93;6.95;;;;;;;12.41;53.23;98820.34;5035982;28;19999;-79
2022/04/24 01:25:25;;;;;;;;;;;;;;;12.52;53.45;98827.88;5048322;28;20037;-79
2022/04/24 01:27:51;;;;;;;11.40;6.32;;;;;;;12.44;52.78;98819.41;5034168;28;19917;-79
2022/04/24 01:30:16;;;;;;;;;;;;;;;12.52;53.31;98817.50;5053321;28;20060;-81
2022/04/24 01:32:42;;;;;;;9.68;6.00;;;;;;;12.45;53.10;98821.13;5084899;28;20414;-79
2022/04/24 01:35:07;;;;;;;;;;;;;;;12.54;53.41;98817.44;5050063;28;20376;-79
2022/04/24 01:37:34;;;;;;;8.63;6.43;;;;;;;12.44;53.41;98819.41;5052482;28;20326;-80
2022/04/24 01:39:59;;;;;;;;;;;;;;;12.45;53.34;98821.97;5052795;28;20039;-79
2022/04/24 01:42:25;;;;;;;8.48;5.85;;;;;;;12.38;53.90;98825.63;5052272;28;19917;-80
2022/04/24 01:44:50;;;;;;;;;;;;;;;12.41;53.95;98815.13;5053235;28;20036;-79
2022/04/24 01:47:16;;;;;;;9.07;6.65;;;;;;;12.29;54.03;98807.66;5047968;28;19917;-79
2022/04/24 01:49:41;;;;;;;;;;;;;;;12.36;54.19;98814.41;5039966;28;20487;-79
2022/04/24 01:52:07;;;;;;;8.18;6.20;;;;;;;12.27;54.22;98811.16;5051728;28;19917;-80
2022/04/24 01:54:33;;;;;;;8.77;6.47;;;;;;;12.18;54.29;98796.66;5037588;28;20033;-79
2022/04/24 01:56:59;;;;;;;;;;;;;;;12.37;54.19;98808.31;5072584;28;20052;-80
2022/04/24 01:59:24;;;;;;;10.88;6.00;;;;;;;12.36;54.04;98804.00;5033052;28;19952;-80
2022/04/24 02:01:50;;;;;;;;;;;;;;;12.45;54.30;98805.50;5053183;28;20045;-80
2022/04/24 02:04:18;;;;;;;11.30;8.60;;;;;;;12.29;54.18;98799.00;5052401;28;19919;-80
2022/04/24 02:06:45;;;;;;;9.85;6.68;;;;;;;12.28;54.23;98805.06;5068270;28;20104;-79
2022/04/24 02:09:10;;;;;;;;;;;;;;;12.36;54.37;98805.75;5051220;28;20041;-79
2022/04/24 02:11:37;;;;;;;7.20;5.75;;;;;;;12.33;53.90;98800.66;5052103;28;19924;-80
2022/04/24 02:14:03;;;;;;;8.60;6.03;;;;;;;12.30;53.86;98804.16;5051700;28;20033;-79
2022/04/24 02:16:29;;;;;;;;;;;;;;;12.36;54.02;98805.75;5052817;28;20033;-79
2022/04/24 02:18:54;;;;;;;7.75;5.47;;;;;;;12.26;54.13;98783.47;5052380;28;19916;-79
2022/04/24 02:21:20;;;;;;;;;;;;;;;12.38;54.17;98797.03;5051114;28;20052;-80
2022/04/24 02:23:46;;;;;;;7.60;5.65;;;;;;;12.25;53.79;98784.38;5037407;28;20279;-80
2022/04/24 02:26:12;;;;;;;9.20;6.07;;;;;;;12.28;53.98;98798.16;5045996;28;20033;-80
2022/04/24 02:28:38;;;;;;;;;;;;;;;12.35;54.08;98804.03;5039455;28;20041;-80
2022/04/24 02:31:03;;;;;;;10.15;6.18;;;;;;;12.33;53.65;98800.66;5050626;28;19944;-80
2022/04/24 02:33:29;;;;;;;;;;;;;;;12.41;53.63;98799.53;5034736;28;20028;-79
2022/04/24 02:35:54;;;;;;;9.35;6.45;;;;;;;12.28;53.47;98789.47;5051515;28;19920;-79
2022/04/24 02:38:20;;;;;;;;;;;;;;;12.34;53.87;98803.19;5068555;28;20049;-80
2022/04/24 02:40:46;;;;;;;7.68;6.50;;;;;;;12.25;54.04;98795.63;5087902;28;19916;-80
2022/04/24 02:43:11;;;;;;;;;;;;;;;12.30;54.19;98798.09;5054696;28;20048;-79
2022/04/24 02:45:37;;;;;;;12.15;8.98;;;;;;;12.26;53.70;98804.28;5055262;28;20441;-80
2022/04/24 02:48:03;;;;;;;;;;;;;;;12.32;53.39;98798.91;5054312;28;20099;-80
2022/04/24 02:50:29;;;;;;;7.63;6.22;;;;;;;12.24;53.45;98806.06;5055189;28;19944;-80
2022/04/24 02:52:54;;;;;;;;;;;;;;;12.31;53.74;98810.22;5056148;28;20068;-79
2022/04/24 02:55:20;;;;;;;7.57;5.93;;;;;;;12.32;53.45;98806.72;5040007;28;19929;-79
2022/04/24 02:57:46;;;;;;;;;;;;;;;12.41;53.43;98804.72;5054598;28;20086;-79
2022/04/24 03:00:13;;;;;;;7.63;5.28;;;;;;;12.38;52.85;98803.97;5042271;28;19975;-80
2022/04/24 03:02:41;;;;;;;8.65;5.65;;;;;;;12.33;53.37;98800.66;5053879;28;20043;-80
2022/04/24 03:05:17;;;;;;;9.82;5.80;;;;;;;12.33;52.96;98806.69;5070105;28;20067;-79
2022/04/24 03:07:43;;;;;;;8.25;5.50;;;;;;;12.35;53.43;98806.66;5055024;28;20045;-80
2022/04/24 03:10:08;;;;;;;;;;;;;;;12.45;53.57;98805.50;5055438;28;20126;-79
2022/04/24 03:12:38;;;;;;;7.82;5.35;;;;;;;12.42;53.23;98810.81;5054541;28;20004;-79
2022/04/24 03:15:05;;;;;;;9.23;5.30;;;;;;;12.34;53.42;98802.34;5055044;28;20044;-80
2022/04/24 03:17:32;;;;;;;12.85;6.80;;;;;;;12.39;53.34;98810.88;5054026;28;20376;-80
2022/04/24 03:20:01;;;;;;;12.15;7.28;;;;;;;12.38;53.77;98806.56;5047113;28;20040;-80
2022/04/24 03:22:27;;;;;;;11.10;7.43;;;;;;;12.39;53.74;98810.88;5054617;28;20058;-80
2022/04/24 03:24:53;;;;;;;8.38;5.57;;;;;;;12.43;53.67;98817.72;5053366;28;20041;-80
2022/04/24 03:27:19;;;;;;;;;;;;;;;12.52;53.38;98814.03;5043141;28;20042;-80
2022/04/24 03:29:44;;;;;;;6.75;5.00;;;;;;;12.43;53.90;98809.91;5051337;28;19912;-80
2022/04/24 03:32:10;;;;;;;;;;;;;;;12.51;53.79;98814.91;5070231;28;20099;-79
2022/04/24 03:34:37;;;;;;;7.00;4.88;;;;;;;12.45;53.47;98805.50;5054545;28;19916;-80
2022/04/24 03:37:04;;;;;;;7.55;5.05;;;;;;;12.45;53.66;98813.31;5054862;28;20123;-80
2022/04/24 03:39:30;;;;;;;7.18;5.15;;;;;;;12.44;53.19;98809.00;5053529;28;20128;-81
2022/04/24 03:41:56;;;;;;;;;;;;;;;12.51;53.53;98809.69;5055055;28;20043;-80
2022/04/24 03:44:22;;;;;;;8.27;4.75;;;;;;;12.47;54.17;98803.75;5054753;28;19913;-80
2022/04/24 03:46:48;;;;;;;;;;;;;;;12.60;53.55;98815.53;5053683;28;20041;-80
2022/04/24 03:49:13;;;;;;;6.63;4.60;;;;;;;12.61;53.30;98808.59;5054635;28;19978;-80
2022/04/24 03:51:39;;;;;;;;;;;;;;;12.71;53.50;98815.25;5087948;28;20106;-79
2022/04/24 03:54:04;;;;;;;14.73;5.30;;;;;;;12.66;53.09;98815.38;5053567;28;19913;-80
2022/04/24 03:56:31;;;;;;;;;;;;;;;12.77;52.91;98816.84;5055497;28;20049;-80
2022/04/24 03:58:58;;;;;;;9.73;4.85;;;;;;;12.77;52.74;98816.84;5055385;28;19916;-79
2022/04/24 04:01:24;;;;;;;9.23;5.15;;;;;;;12.77;52.63;98814.25;5052939;28;20048;-79
2022/04/24 04:03:52;;;;;;;;;;;;;;;12.90;52.47;98808.66;5054840;28;20033;-79
2022/04/24 04:06:18;;;;;;;7.65;5.00;;;;;;;12.82;52.20;98802.81;5041105;28;20003;-79
2022/04/24 04:08:44;;;;;;;7.32;5.28;;;;;;;12.82;51.91;98805.41;5070390;28;20029;-79
2022/04/24 04:11:10;;;;;;;;;;;;;;;12.90;52.38;98807.81;5055723;28;20657;-79
2022/04/24 04:13:36;;;;;;;6.97;5.00;;;;;;;12.89;52.37;98808.72;5054599;28;19999;-80
2022/04/24 04:16:01;;;;;;;;;;;;;;;12.98;52.05;98803.25;5055358;28;20578;-80
2022/04/24 04:18:27;;;;;;;9.82;5.90;;;;;;;13.00;51.85;98804.06;5051793;28;19920;-80
2022/04/24 04:20:53;;;;;;;;;;;;;;;13.11;51.91;98802.03;5055053;28;20045;-79
2022/04/24 04:23:18;;;;;;;8.18;5.43;;;;;;;13.06;51.57;98798.69;5053052;28;19971;-73
2022/04/24 04:25:44;;;;;;;;;;;;;;;13.09;51.33;98801.19;5052737;28;20040;-73
2022/04/24 04:28:10;;;;;;;10.75;4.80;;;;;;;12.90;52.05;98794.78;5045881;28;19927;-74
2022/04/24 04:30:35;;;;;;;;;;;;;;;12.99;51.94;98797.16;5052571;28;20053;-74
2022/04/24 04:33:01;;;;;;;9.60;4.65;;;;;;;13.01;52.39;98790.13;5047987;28;19913;-73
2022/04/24 04:35:26;;;;;;;;;;;;;;;13.14;51.96;98788.91;5040202;28;20040;-73
2022/04/24 04:37:52;;;;;;;7.60;5.30;;;;;;;13.08;51.58;98783.88;5049776;28;19913;-75
2022/04/24 04:40:20;;;;;;;;;;;;;;;13.14;51.83;98794.09;5039460;28;20051;-75
2022/04/24 04:42:46;;;;;;;5.57;4.47;;;;;;;13.18;51.70;98787.91;5051785;28;19951;-74
2022/04/24 04:45:12;;;;;;;9.65;5.35;;;;;;;13.15;51.48;98777.59;5050418;28;20434;-74
2022/04/24 04:47:37;;;;;;;;;;;;;;;13.26;51.62;98789.50;5050873;28;20029;-74
2022/04/24 04:50:04;;;;;;;6.47;4.60;;;;;;;13.14;51.79;98788.03;5050509;28;19917;-74
2022/04/24 04:52:29;;;;;;;8.32;4.35;;;;;;;13.13;51.75;98784.59;5050459;28;20043;-73
2022/04/24 04:54:55;;;;;;;;;;;;;;;13.19;51.76;98789.66;5042094;28;20037;-73
2022/04/24 04:57:20;;;;;;;8.32;5.05;;;;;;;13.15;51.87;98788.03;5047701;28;19913;-74
2022/04/24 04:59:46;;;;;;;;;;;;;;;13.27;51.89;98786.84;5052025;28;20041;-73
2022/04/24 05:02:11;;;;;;;8.85;4.55;;;;;;;13.26;51.47;98790.34;5048491;28;19913;-74
2022/04/24 05:04:38;;;;;;;;;;;;;;;13.23;51.53;98780.84;5046568;28;20038;-74
2022/04/24 05:07:04;;;;;;;8.27;4.30;;;;;;;13.22;51.61;98789.56;5042301;28;19970;-74
2022/04/24 05:09:30;;;;;;;;;;;;;;;13.28;51.44;98788.53;5050221;28;20103;-74
2022/04/24 05:11:55;;;;;;;10.15;6.50;;;;;;;13.21;51.75;98779.19;5038531;28;20310;-74
2022/04/24 05:14:21;;;;;;;;;;;;;;;13.29;51.87;98784.22;5047121;28;20052;-74
2022/04/24 05:16:46;;;;;;;8.65;5.18;;;;;;;13.29;51.75;98781.59;5033290;28;19948;-73
2022/04/24 05:19:12;;;;;;;;;;;;;;;13.37;51.59;98785.66;5031912;28;20034;-74
2022/04/24 05:21:37;;;;;;;7.22;5.38;;;;;;;13.34;51.68;98775.34;5031103;28;19913;-74
2022/04/24 05:24:03;;;;;;;;;;;;;;;13.43;51.89;98777.69;5073561;28;20064;-73
2022/04/24 05:26:29;;;;;;;11.13;5.65;;;;;;;13.43;52.21;98771.63;5041659;28;20407;-73
2022/04/24 05:28:54;;;;;;;;;;;;;;;13.44;52.11;98778.53;5035102;28;20076;-76
2022/04/24 05:31:20;;;;;;;14.23;8.93;;;;;;;13.33;52.22;98770.16;5050918;28;19920;-74
2022/04/24 05:33:46;;;;;;;;;;;;;;;13.36;52.90;98783.09;5044882;28;20041;-75
2022/04/24 05:36:11;;;;;;;7.95;5.35;;;;;;;13.40;52.57;98780.38;5048272;28;20295;-76
2022/04/24 05:38:37;;;;;;;6.82;5.30;;;;;;;13.39;52.83;98770.00;5047371;28;20033;-76
2022/04/24 05:41:03;;;;;;;;;;;;;;;13.45;52.62;98782.84;5043613;28;20028;-76
2022/04/24 05:43:29;;;;;;;7.90;6.25;;;;;;;13.28;54.77;98767.69;5052631;28;19917;-75
2022/04/24 05:45:55;;;;;;;7.60;5.32;;;;;;;13.33;54.84;98788.41;5042235;28;20036;-75
2022/04/24 05:48:22;;;;;;;;;;;;;;;13.37;54.23;98783.06;5047571;28;20041;-75
2022/04/24 05:50:48;;;;;;;7.25;4.78;;;;;;;13.25;55.35;98773.00;5052618;28;19919;-75
2022/04/24 05:53:14;;;;;;;6.22;4.97;;;;;;;13.10;56.29;98776.88;5039003;28;20033;-76
2022/04/24 05:55:39;;;;;;;;;;;;;;;13.03;57.36;98777.94;5036049;28;20451;-74
2022/04/24 05:58:05;;;;;;;7.43;5.47;;;;;;;12.96;57.89;98774.63;5041342;28;20035;-75
2022/04/24 06:00:30;;;;;;;;;;;;;;;12.95;57.68;98779.91;5047830;28;20056;-75
2022/04/24 06:02:56;;;;;;;8.40;5.80;;;;;;;12.86;58.68;98774.94;5051386;28;19916;-75
2022/04/24 06:05:22;;;;;;;;;;;;;;;12.84;59.17;98779.34;5053420;28;20071;-75
2022/04/24 06:07:48;;;;;;;8.45;6.18;;;;;;;12.73;59.80;98767.47;5035061;28;19916;-76
2022/04/24 06:10:13;;;;;;;;;;;;;;;12.78;59.17;98769.94;5034236;28;20040;-76
2022/04/24 06:12:49;;;;;;;7.55;5.78;;;;;;;12.72;60.21;98775.31;5033145;28;20687;-75
2022/04/24 06:15:16;;;;;;;6.25;5.20;;;;;;;12.70;61.17;98775.38;5051367;28;20424;-76
2022/04/24 06:17:47;;;;;;;7.43;6.00;;;;;;;12.72;61.24;98768.38;5018852;28;20037;-75
2022/04/24 06:20:13;;;;;;;7.50;5.68;;;;;;;12.78;61.10;98766.50;5035529;28;20057;-77
2022/04/24 06:22:43;;;;;;;;;;;;;;;12.84;61.09;98768.94;5036311;28;20036;-76
2022/04/24 06:25:09;;;;;;;8.25;5.95;;;;;;;12.78;61.58;98772.53;5035412;28;19917;-74
2022/04/24 06:27:34;;;;;;;;;;;;;;;12.84;61.29;98771.56;5035716;28;20036;-75
2022/04/24 06:30:01;;;;;;;6.40;5.70;;;;;;;12.84;61.21;98764.59;5033899;28;20035;-76
2022/04/24 06:32:29;;;;;;;8.15;6.47;;;;;;;12.84;62.02;98771.56;5037838;28;20039;-75
2022/04/24 06:34:55;;;;;;;;;;;;;;;12.80;62.51;98775.13;5037175;28;20526;-76
2022/04/24 06:37:20;;;;;;;7.82;6.00;;;;;;;12.82;62.04;98768.97;5066693;28;20394;-76
2022/04/24 06:39:46;;;;;;;;;;;;;;;12.94;60.87;98775.59;5068700;28;20044;-76
2022/04/24 06:42:11;;;;;;;9.10;7.03;;;;;;;12.80;62.55;98767.31;5037271;28;20474;-75
2022/04/24 06:44:37;;;;;;;;;;;;;;;12.84;62.27;98771.56;5065873;28;20416;-75
2022/04/24 06:47:03;;;;;;;9.88;7.10;;;;;;;12.78;62.82;98775.16;5035285;28;20295;-75
2022/04/24 06:49:29;;;;;;;9.80;7.78;;;;;;;12.66;63.73;98763.34;5035276;28;20114;-76
2022/04/24 06:51:54;;;;;;;;;;;;;;;12.80;62.42;98769.91;5070492;28;20471;-76
2022/04/24 06:54:20;;;;;;;8.85;6.47;;;;;;;12.68;63.09;98758.94;5054799;28;20395;-76
2022/04/24 06:56:46;;;;;;;;;;;;;;;12.72;62.66;98770.97;5054830;28;20032;-81
2022/04/24 06:59:11;;;;;;;7.63;6.30;;;;;;;12.63;63.59;98768.63;5054175;28;20029;-78
2022/04/24 07:01:37;;;;;;;;;;;;;;;12.67;63.13;98772.84;5054815;28;20036;-75
2022/04/24 07:04:03;;;;;;;8.15;6.53;;;;;;;12.65;64.41;98774.66;5055141;28;19917;-77
2022/04/24 07:06:28;;;;;;;;;;;;;;;12.63;65.20;98773.81;5055978;28;20063;-76
2022/04/24 07:08:54;;;;;;;7.97;6.40;;;;;;;12.74;64.88;98765.75;5055190;28;20391;-77
2022/04/24 07:11:22;;;;;;;;;;;;;;;12.83;64.41;98769.81;5054531;28;20048;-75
2022/04/24 07:13:47;;;;;;;9.77;7.25;;;;;;;12.75;65.06;98772.66;5038294;28;19962;-76
2022/04/24 07:16:13;;;;;;;;;;;;;;;12.75;65.69;98774.41;5055617;28;20372;-76
2022/04/24 07:18:38;;;;;;;8.98;6.85;;;;;;;12.63;65.71;98755.59;5048901;28;20019;-77
2022/04/24 07:21:06;;;;;;;;;;;;;;;12.80;65.11;98772.53;5050353;28;20033;-77
2022/04/24 07:23:32;;;;;;;9.32;6.65;;;;;;;12.67;65.83;98774.59;5054736;28;20291;-77
2022/04/24 07:25:58;;;;;;;;;;;;;;;12.74;66.62;98781.34;5053690;28;20067;-77
2022/04/24 07:28:24;;;;;;;9.10;7.97;;;;;;;12.63;66.30;98762.56;5041573;28;19916;-78
2022/04/24 07:30:50;;;;;;;;;;;;;;;12.69;66.40;98784.09;5059530;28;20037;-78
2022/04/24 07:33:15;;;;;;;8.15;6.88;;;;;;;12.77;66.09;98776.06;5036408;28;19956;-77
2022/04/24 07:35:41;;;;;;;;;;;;;;;12.84;65.08;98775.00;5035317;28;20488;-78
2022/04/24 07:38:07;;;;;;;8.73;7.07;;;;;;;12.78;65.91;98779.50;5062587;28;19917;-77
2022/04/24 07:40:33;;;;;;;;;;;;;;;12.73;66.54;98780.47;5036697;28;20091;-77
2022/04/24 07:43:00;;;;;;;8.18;7.10;;;;;;;12.65;67.87;98772.03;5046398;28;19954;-78
2022/04/24 07:45:31;;;;;;;10.52;6.97;;;;;;;12.64;67.15;98759.06;5086925;28;20033;-77
2022/04/24 07:47:57;;;;;;;10.50;7.47;;;;;;;12.67;67.60;98772.84;5085898;28;20048;-77
2022/04/24 07:50:30;;;;;;;9.73;8.48;;;;;;;12.70;68.14;98767.56;5070085;28;20407;-77
2022/04/24 07:52:56;;;;;;;9.80;7.30;;;;;;;12.79;66.91;98744.81;5052076;28;20511;-78
2022/04/24 07:55:23;;;;;;;;;;;;;;;13.11;66.13;98765.56;5036096;28;20029;-78
2022/04/24 07:57:50;;;;;;;10.18;7.60;;;;;;;13.19;66.17;98763.59;5033066;28;20380;-77
2022/04/24 08:00:16;;;;;;;7.80;6.05;;;;;;;13.17;66.24;98756.72;5034161;28;20536;-76
2022/04/24 08:02:48;;;;;;;10.05;6.40;;;;;;;13.19;66.10;98760.13;5038378;28;20142;-77
2022/04/24 08:05:24;;;;;;;8.15;6.00;;;;;;;13.15;66.54;98750.72;5046465;28;20087;-78
2022/04/24 08:07:51;;;;;;;7.03;5.90;;;;;;;13.35;65.34;98757.97;5050386;28;20111;-78
2022/04/24 08:10:17;;;;;;;6.25;5.60;;;;;;;13.44;65.19;98753.34;5035334;28;20040;-78
2022/04/24 08:12:43;;;;;;;7.95;6.85;;;;;;;13.38;65.01;98758.72;5033886;28;20106;-79
2022/04/24 08:15:08;;;;;;;;;;;;;;;13.45;65.78;98764.59;5049654;28;20063;-79
2022/04/24 08:17:34;;;;;;;7.63;5.90;;;;;;;13.51;63.99;98751.38;5036805;28;20364;-78
2022/04/24 08:20:00;;;;;;;;;;;;;;;13.59;63.60;98751.16;5018637;28;20036;-76
2022/04/24 08:22:40;;;;;;;7.07;5.35;;;;;;;13.51;63.31;98747.91;5034992;28;19923;-78
2022/04/24 08:25:07;;;;;;;6.97;5.22;;;;;;;13.45;63.24;98726.38;5041665;28;20391;-78
2022/04/24 08:27:33;;;;;;;6.63;5.07;;;;;;;13.44;62.59;98711.66;5072305;28;20470;-78
2022/04/24 08:30:04;;;;;;;7.38;5.43;;;;;;;13.64;62.11;98739.69;5021103;28;20045;-77
2022/04/24 08:32:29;;;;;;;6.95;4.60;;;;;;;13.74;61.77;98748.06;5022261;28;20037;-76
2022/04/24 08:34:56;;;;;;;;;;;;;;;13.87;62.14;98756.34;5048400;28;20083;-78
2022/04/24 08:37:23;;;;;;;6.38;4.75;;;;;;;13.90;61.09;98751.91;5070016;28;19974;-78
2022/04/24 08:39:49;;;;;;;5.57;4.60;;;;;;;13.88;61.14;98747.63;5069322;28;20094;-79
2022/04/24 08:42:18;;;;;;;;;;;;;;;13.96;61.31;98748.22;5052634;28;20052;-78
2022/04/24 08:44:46;;;;;;;7.32;5.22;;;;;;;13.88;60.45;98755.44;5036917;28;19997;-76
2022/04/24 08:47:13;;;;;;;5.65;5.05;;;;;;;13.81;60.86;98756.56;5033975;28;20029;-78
2022/04/24 08:49:39;;;;;;;6.07;4.68;;;;;;;13.82;62.22;98742.63;5067132;28;20108;-78
2022/04/24 08:52:04;;;;;;;;;;;;;;;14.13;60.48;98748.53;5036471;28;20384;-76
2022/04/24 08:54:30;;;;;;;4.95;4.45;;;;;;;14.10;59.79;98753.00;5049493;28;19917;-80
2022/04/24 08:56:58;;;;;;;;;;;;;;;14.11;60.76;98750.38;5035324;28;20083;-78
2022/04/24 08:59:24;;;;;;;5.43;4.78;;;;;;;14.01;60.04;98761.13;5032119;28;19919;-77
2022/04/24 09:01:52;;;;;;;;;;;;;;;13.97;60.07;98761.25;5048860;28;20045;-77
2022/04/24 09:04:19;;;;;;;5.82;4.70;;;;;;;13.89;60.07;98746.75;5033602;28;20371;-79
2022/04/24 09:06:57;;;;;;;4.78;3.90;;;;;;;13.92;60.03;98734.44;5048460;28;20037;-77
2022/04/24 09:09:23;;;;;;;4.15;3.55;;;;;;;13.92;59.45;98730.97;5044748;28;20447;-77
2022/04/24 09:11:49;;;;;;;;;;;;;;;14.08;59.88;98760.88;5048215;28;20041;-79
2022/04/24 09:14:15;;;;;;;3.90;3.20;;;;;;;13.99;60.86;98751.59;5048189;28;19926;-78
2022/04/24 09:16:49;;;;;;;4.60;3.83;;;;;;;14.03;59.94;98770.63;5032090;28;20037;-77
2022/04/24 09:19:24;;;;;;;4.57;3.78;;;;;;;13.87;61.08;98772.00;5012202;28;20401;-77
2022/04/24 09:21:51;;;;;;;6.50;4.72;;;;;;;13.72;62.94;98761.16;5046826;28;20052;-78
2022/04/24 09:24:17;;;;;;;4.97;4.15;;;;;;;13.59;63.81;98762.44;5029949;28;20057;-80
2022/04/24 09:26:52;;;;;;;;;;;;;;;13.69;63.54;98763.84;5031466;28;20039;-78
2022/04/24 09:29:18;;;;;;;4.82;4.22;;;;;;;13.73;63.31;98762.00;5046529;28;20372;-82
2022/04/24 09:31:44;;;;;;;;;;;;;;;13.85;63.42;98764.22;5017086;28;20029;-77
2022/04/24 09:34:10;;;;;;;5.63;5.03;;;;;;;13.73;64.33;98762.84;5031756;28;19947;-78
2022/04/24 09:36:36;;;;;;;5.78;4.15;;;;;;;13.87;64.60;98756.34;5035243;28;20064;-77
2022/04/24 09:39:02;;;;;;;;;;;;;;;14.15;61.71;98761.53;5032249;28;20041;-78
2022/04/24 09:41:27;;;;;;;5.22;4.72;;;;;;;14.22;61.20;98750.84;5064808;28;19917;-78
2022/04/24 09:43:53;;;;;;;;;;;;;;;14.31;61.42;98751.44;5038920;28;20044;-78
2022/04/24 09:46:26;;;;;;;5.85;4.18;;;;;;;14.22;61.78;98756.06;5032274;28;19917;-79
2022/04/24 09:48:52;;;;;;;5.40;4.80;;;;;;;14.27;61.90;98744.63;5065654;28;20112;-78
2022/04/24 09:51:18;;;;;;;4.95;4.00;;;;;;;14.39;62.22;98747.69;5032674;28;20040;-79
2022/04/24 09:53:44;;;;;;;6.70;5.97;;;;;;;14.56;62.26;98741.88;5049887;28;20041;-80
2022/04/24 09:56:09;;;;;;;;;;;;;;;14.73;60.97;98742.16;5047658;28;20044;-78
2022/04/24 09:58:37;;;;;;;5.70;4.45;;;;;;;14.52;61.04;98740.28;5033526;28;20023;-79
2022/04/24 10:01:05;;;;;;;5.00;4.50;;;;;;;14.53;61.88;98742.00;5032785;28;20108;-82
2022/04/24 10:03:30;;;;;;;5.07;4.32;;;;;;;14.47;62.71;98750.00;5031293;28;20365;-78
2022/04/24 10:05:56;;;;;;;;;;;;;;;14.57;63.01;98750.56;5038412;28;20041;-77
2022/04/24 10:08:22;;;;;;;4.50;4.10;;;;;;;14.56;62.63;98756.69;5035789;28;20351;-78
2022/04/24 10:10:47;;;;;;;;;;;;;;;14.65;62.69;98754.63;5046904;28;20067;-78
2022/04/24 10:13:13;;;;;;;7.43;5.97;;;;;;;14.61;62.98;98750.41;5036636;28;19917;-78
2022/04/24 10:15:42;;;;;;;;;;;;;;;14.54;63.51;98754.16;5031517;28;20057;-78
2022/04/24 10:18:45;;;;;;;4.95;4.03;;;;;;;14.68;63.21;98736.25;5073126;28;20393;-78
2022/04/24 10:21:17;;;;;;;6.35;4.05;;;;;;;14.78;62.09;98746.38;5040445;28;20041;-78
2022/04/24 10:23:42;;;;;;;5.95;4.63;;;;;;;14.79;62.31;98745.44;5052174;28;20084;-79
2022/04/24 10:26:17;;;;;;;5.45;3.53;;;;;;;14.78;61.52;98746.38;5050516;28;20117;-79
2022/04/24 10:28:46;;;;;;;5.40;3.20;;;;;;;14.91;60.76;98738.03;5041010;28;20040;-79
2022/04/24 10:31:12;;;;;;;5.00;3.30;;;;;;;14.88;59.82;98719.00;5051278;28;20048;-79
2022/04/24 10:33:40;;;;;;;5.53;3.15;;;;;;;14.69;59.98;98729.25;5052412;28;20039;-79
2022/04/24 10:36:05;;;;;;;4.05;3.13;;;;;;;14.54;60.71;98741.09;5038026;28;20025;-78
2022/04/24 10:38:33;;;;;;;4.80;3.60;;;;;;;14.24;61.88;98724.69;5051396;28;20521;-78
2022/04/24 10:41:00;;;;;;;5.20;4.43;;;;;;;14.31;61.46;98735.78;5037082;28;20469;-79
2022/04/24 10:43:34;;;;;;;4.70;3.70;;;;;;;14.21;61.05;98732.66;5044498;28;20478;-79
2022/04/24 10:46:00;;;;;;;4.22;2.88;;;;;;;14.17;60.85;98739.72;5052245;28;20039;-79
2022/04/24 10:48:31;;;;;;;3.97;3.03;;;;;;;14.17;61.24;98721.47;5052067;28;20476;-82
2022/04/24 10:50:57;;;;;;;5.03;3.20;;;;;;;14.01;61.12;98702.00;5050169;28;20045;-80
2022/04/24 10:53:22;;;;;;;;;;;;;;;14.05;60.94;98740.13;5051635;28;20047;-82
2022/04/24 10:55:48;;;;;;;4.75;3.55;;;;;;;13.87;62.55;98714.63;5034039;28;19924;-79
2022/04/24 10:58:24;;;;;;;4.43;3.00;;;;;;;13.89;62.33;98739.78;5049777;28;20029;-79
2022/04/24 11:00:50;;;;;;;3.13;2.80;;;;;;;13.79;62.56;98733.16;5061984;28;20045;-78
2022/04/24 11:03:15;;;;;;;;;;;;;;;13.55;63.67;98737.34;5037042;28;20037;-78
2022/04/24 11:05:43;;;;;;;5.68;4.25;;;;;;;13.37;64.99;98741.38;5069801;28;20353;-78
2022/04/24 11:08:09;;;;;;;4.30;3.17;;;;;;;13.34;65.55;98738.88;5053964;28;20029;-78
2022/04/24 11:10:42;;;;;;;4.25;3.53;;;;;;;13.22;66.12;98747.91;5036633;28;20037;-78
2022/04/24 11:13:12;;;;;;;3.95;3.35;;;;;;;13.19;66.17;98745.38;5069277;28;20037;-78
2022/04/24 11:15:42;;;;;;;4.75;3.10;;;;;;;13.09;66.43;98741.31;5035274;28;20092;-78
2022/04/24 11:18:17;;;;;;;5.13;3.80;;;;;;;12.97;67.37;98726.91;5036617;28;20500;-77
2022/04/24 11:20:43;;;;;;;4.45;3.25;;;;;;;13.04;67.31;98743.19;5066657;28;20171;-80
2022/04/24 11:23:08;;;;;;;;;;;;;;;12.96;68.27;98746.00;5021859;28;20135;-78
2022/04/24 11:25:38;;;;;;;3.63;3.00;;;;;;;12.97;68.10;98739.94;5035626;28;19917;-77
2022/04/24 11:28:04;;;;;;;8.00;6.15;;;;;;;12.72;68.30;98699.84;5052768;28;20052;-80
2022/04/24 11:30:33;;;;;;;;;;;;;;;13.10;67.34;98737.84;5050660;28;20033;-79
2022/04/24 11:33:05;;;;;;;3.50;2.90;;;;;;;13.11;67.17;98749.09;5052527;28;20419;-81
2022/04/24 11:35:33;;;;;;;4.20;3.42;;;;;;;13.01;67.81;98726.81;5033383;28;20366;-78
2022/04/24 11:37:59;;;;;;;4.45;3.10;;;;;;;12.99;67.60;98729.47;5067879;28;20033;-80
2022/04/24 11:40:25;;;;;;;4.75;3.20;;;;;;;12.92;68.43;98718.38;5034972;28;20037;-78
2022/04/24 11:42:50;;;;;;;;;;;;;;;13.01;68.43;98735.47;5051331;28;20038;-78
2022/04/24 11:50:51;;;;;;;3.38;2.80;;;;;;;12.97;67.67;98721.69;5031920;28;20045;-79
2022/04/24 11:53:18;;;;;;;4.10;3.03;;;;;;;12.96;68.81;98726.94;5050404;28;20480;-81
2022/04/24 11:56:02;;;;;;;3.75;3.10;;;;;;;12.93;68.36;98730.50;5048920;28;20564;-79
2022/04/24 11:58:33;;;;;;;5.30;4.15;;;;;;;12.87;69.32;98730.66;5033065;28;20037;-81
2022/04/24 12:01:00;;;;;;;5.25;3.83;;;;;;;12.86;69.01;98725.50;5034363;28;20385;-79